sensor_id;sensor_type;location;lat;lon;timestamp;temperature;humidity
49238;DHT22;35069;47.906;1.892;2022-09-01T00:01:51;22.90;62.20
49238;DHT22;35069;47.906;1.892;2022-09-01T00:04:19;22.80;62.40
49238;DHT22;35069;47.906;1.892;2022-09-01T00:06:46;22.80;62.50
49238;DHT22;35069;47.906;1.892;2022-09-01T00:09:15;22.80;62.50
49238;DHT22;35069;47.906;1.892;2022-09-01T00:11:44;22.80;62.70
49238;DHT22;35069;47.906;1.892;2022-09-01T00:14:11;22.70;63.00
49238;DHT22;35069;47.906;1.892;2022-09-01T00:16:38;22.70;63.20
49238;DHT22;35069;47.906;1.892;2022-09-01T00:19:04;22.60;63.50
49238;DHT22;35069;47.906;1.892;2022-09-01T00:21:37;22.50;63.90
49238;DHT22;35069;47.906;1.892;2022-09-01T00:24:04;22.40;64.70
49238;DHT22;35069;47.906;1.892;2022-09-01T00:26:30;22.30;64.50
49238;DHT22;35069;47.906;1.892;2022-09-01T00:28:57;22.30;64.80
49238;DHT22;35069;47.906;1.892;2022-09-01T00:31:22;22.20;65.00
49238;DHT22;35069;47.906;1.892;2022-09-01T00:33:49;22.20;65.20
49238;DHT22;35069;47.906;1.892;2022-09-01T00:36:17;22.20;65.40
49238;DHT22;35069;47.906;1.892;2022-09-01T00:38:43;22.10;65.50
49238;DHT22;35069;47.906;1.892;2022-09-01T00:41:09;22.20;65.60
49238;DHT22;35069;47.906;1.892;2022-09-01T00:46:19;22.30;65.70
49238;DHT22;35069;47.906;1.892;2022-09-01T00:48:46;22.20;66.00
49238;DHT22;35069;47.906;1.892;2022-09-01T00:51:13;22.10;66.00
49238;DHT22;35069;47.906;1.892;2022-09-01T00:53:41;22.00;66.30
49238;DHT22;35069;47.906;1.892;2022-09-01T00:56:08;22.10;66.70
49238;DHT22;35069;47.906;1.892;2022-09-01T00:58:35;22.00;66.80
49238;DHT22;35069;47.906;1.892;2022-09-01T01:01:02;22.00;67.60
49238;DHT22;35069;47.906;1.892;2022-09-01T01:03:28;22.00;67.30
49238;DHT22;35069;47.906;1.892;2022-09-01T01:05:57;22.00;67.40
49238;DHT22;35069;47.906;1.892;2022-09-01T01:08:30;22.00;67.60
49238;DHT22;35069;47.906;1.892;2022-09-01T01:11:03;22.00;67.60
49238;DHT22;35069;47.906;1.892;2022-09-01T01:13:29;22.00;67.60
49238;DHT22;35069;47.906;1.892;2022-09-01T01:15:57;22.00;67.70
49238;DHT22;35069;47.906;1.892;2022-09-01T01:18:24;21.90;67.90
49238;DHT22;35069;47.906;1.892;2022-09-01T01:21:04;21.90;68.10
49238;DHT22;35069;47.906;1.892;2022-09-01T01:24:04;22.00;68.90
49238;DHT22;35069;47.906;1.892;2022-09-01T01:26:31;21.90;68.60
49238;DHT22;35069;47.906;1.892;2022-09-01T01:28:57;21.90;68.40
49238;DHT22;35069;47.906;1.892;2022-09-01T01:31:22;21.70;68.50
49238;DHT22;35069;47.906;1.892;2022-09-01T01:33:55;21.70;68.90
49238;DHT22;35069;47.906;1.892;2022-09-01T01:36:26;21.60;69.60
49238;DHT22;35069;47.906;1.892;2022-09-01T01:38:59;21.50;69.50
49238;DHT22;35069;47.906;1.892;2022-09-01T01:41:27;21.50;69.80
49238;DHT22;35069;47.906;1.892;2022-09-01T01:43:58;21.40;70.00
49238;DHT22;35069;47.906;1.892;2022-09-01T01:46:25;21.50;70.20
49238;DHT22;35069;47.906;1.892;2022-09-01T01:48:51;21.50;70.20
49238;DHT22;35069;47.906;1.892;2022-09-01T01:51:19;21.50;70.20
49238;DHT22;35069;47.906;1.892;2022-09-01T01:53:46;21.40;70.40
49238;DHT22;35069;47.906;1.892;2022-09-01T01:56:17;21.40;70.50
49238;DHT22;35069;47.906;1.892;2022-09-01T01:58:44;21.40;70.60
49238;DHT22;35069;47.906;1.892;2022-09-01T02:01:09;21.40;70.60
49238;DHT22;35069;47.906;1.892;2022-09-01T02:03:38;21.40;70.80
49238;DHT22;35069;47.906;1.892;2022-09-01T02:06:06;21.40;71.00
49238;DHT22;35069;47.906;1.892;2022-09-01T02:08:34;21.40;71.00
49238;DHT22;35069;47.906;1.892;2022-09-01T02:11:01;21.40;71.00
49238;DHT22;35069;47.906;1.892;2022-09-01T02:13:27;21.40;71.10
49238;DHT22;35069;47.906;1.892;2022-09-01T02:16:03;21.30;71.30
49238;DHT22;35069;47.906;1.892;2022-09-01T02:18:34;21.20;71.60
49238;DHT22;35069;47.906;1.892;2022-09-01T02:21:06;21.20;71.80
49238;DHT22;35069;47.906;1.892;2022-09-01T02:23:34;21.20;72.00
49238;DHT22;35069;47.906;1.892;2022-09-01T02:26:00;21.10;72.20
49238;DHT22;35069;47.906;1.892;2022-09-01T02:28:27;21.10;72.50
49238;DHT22;35069;47.906;1.892;2022-09-01T02:30:56;21.10;72.70
49238;DHT22;35069;47.906;1.892;2022-09-01T02:33:25;21.10;72.80
49238;DHT22;35069;47.906;1.892;2022-09-01T02:35:55;21.10;72.90
49238;DHT22;35069;47.906;1.892;2022-09-01T02:38:22;21.10;73.00
49238;DHT22;35069;47.906;1.892;2022-09-01T02:40:51;21.10;73.00
49238;DHT22;35069;47.906;1.892;2022-09-01T02:43:19;21.10;72.90
49238;DHT22;35069;47.906;1.892;2022-09-01T02:45:56;21.10;72.90
49238;DHT22;35069;47.906;1.892;2022-09-01T02:48:26;21.10;73.20
49238;DHT22;35069;47.906;1.892;2022-09-01T02:50:53;21.10;73.10
49238;DHT22;35069;47.906;1.892;2022-09-01T02:53:24;21.00;73.30
49238;DHT22;35069;47.906;1.892;2022-09-01T02:55:49;21.10;73.40
49238;DHT22;35069;47.906;1.892;2022-09-01T02:58:16;21.10;73.30
49238;DHT22;35069;47.906;1.892;2022-09-01T03:00:45;21.10;73.40
49238;DHT22;35069;47.906;1.892;2022-09-01T03:03:17;21.10;73.70
49238;DHT22;35069;47.906;1.892;2022-09-01T03:05:44;21.10;73.90
49238;DHT22;35069;47.906;1.892;2022-09-01T03:08:11;21.00;74.00
49238;DHT22;35069;47.906;1.892;2022-09-01T03:10:42;20.80;74.50
49238;DHT22;35069;47.906;1.892;2022-09-01T03:13:15;20.80;74.90
49238;DHT22;35069;47.906;1.892;2022-09-01T03:15:42;20.70;75.40
49238;DHT22;35069;47.906;1.892;2022-09-01T03:18:10;20.70;75.50
49238;DHT22;35069;47.906;1.892;2022-09-01T03:20:37;20.70;75.70
49238;DHT22;35069;47.906;1.892;2022-09-01T03:23:06;20.70;75.80
49238;DHT22;35069;47.906;1.892;2022-09-01T03:25:34;20.70;76.00
49238;DHT22;35069;47.906;1.892;2022-09-01T03:28:00;20.70;76.00
49238;DHT22;35069;47.906;1.892;2022-09-01T03:30:31;20.80;76.00
49238;DHT22;35069;47.906;1.892;2022-09-01T03:32:59;20.80;76.00
49238;DHT22;35069;47.906;1.892;2022-09-01T03:35:26;20.80;76.00
49238;DHT22;35069;47.906;1.892;2022-09-01T03:37:53;20.70;76.20
49238;DHT22;35069;47.906;1.892;2022-09-01T03:40:28;20.70;76.40
49238;DHT22;35069;47.906;1.892;2022-09-01T03:42:59;20.70;76.60
49238;DHT22;35069;47.906;1.892;2022-09-01T03:45:25;20.60;76.70
49238;DHT22;35069;47.906;1.892;2022-09-01T03:47:52;20.60;76.90
49238;DHT22;35069;47.906;1.892;2022-09-01T03:50:20;20.60;77.10
49238;DHT22;35069;47.906;1.892;2022-09-01T03:52:52;20.50;78.00
49238;DHT22;35069;47.906;1.892;2022-09-01T03:55:20;20.40;77.70
49238;DHT22;35069;47.906;1.892;2022-09-01T03:57:56;20.40;77.90
49238;DHT22;35069;47.906;1.892;2022-09-01T04:00:24;20.40;78.20
49238;DHT22;35069;47.906;1.892;2022-09-01T04:02:55;20.30;78.40
49238;DHT22;35069;47.906;1.892;2022-09-01T04:05:23;20.30;78.60
49238;DHT22;35069;47.906;1.892;2022-09-01T04:07:57;20.30;78.80
49238;DHT22;35069;47.906;1.892;2022-09-01T04:10:25;20.40;78.70
49238;DHT22;35069;47.906;1.892;2022-09-01T04:12:51;20.30;78.70
49238;DHT22;35069;47.906;1.892;2022-09-01T04:15:17;20.30;78.90
49238;DHT22;35069;47.906;1.892;2022-09-01T04:17:44;20.30;79.00
49238;DHT22;35069;47.906;1.892;2022-09-01T04:20:29;20.20;79.20
49238;DHT22;35069;47.906;1.892;2022-09-01T04:23:07;20.30;80.00
49238;DHT22;35069;47.906;1.892;2022-09-01T04:25:38;20.20;79.40
49238;DHT22;35069;47.906;1.892;2022-09-01T04:28:05;20.20;79.60
49238;DHT22;35069;47.906;1.892;2022-09-01T04:30:48;20.20;79.60
49238;DHT22;35069;47.906;1.892;2022-09-01T04:33:14;20.10;79.90
49238;DHT22;35069;47.906;1.892;2022-09-01T04:35:42;20.20;80.00
49238;DHT22;35069;47.906;1.892;2022-09-01T04:38:08;20.20;80.30
49238;DHT22;35069;47.906;1.892;2022-09-01T04:40:40;20.20;80.50
49238;DHT22;35069;47.906;1.892;2022-09-01T04:43:06;20.20;80.70
49238;DHT22;35069;47.906;1.892;2022-09-01T04:45:36;20.20;80.90
49238;DHT22;35069;47.906;1.892;2022-09-01T04:48:05;20.20;81.20
49238;DHT22;35069;47.906;1.892;2022-09-01T04:50:32;20.20;81.10
49238;DHT22;35069;47.906;1.892;2022-09-01T04:53:01;20.30;80.80
49238;DHT22;35069;47.906;1.892;2022-09-01T04:55:28;20.10;81.00
49238;DHT22;35069;47.906;1.892;2022-09-01T04:57:56;20.10;81.30
49238;DHT22;35069;47.906;1.892;2022-09-01T05:00:24;20.00;81.80
49238;DHT22;35069;47.906;1.892;2022-09-01T05:02:57;19.90;82.20
49238;DHT22;35069;47.906;1.892;2022-09-01T05:05:35;19.80;83.30
49238;DHT22;35069;47.906;1.892;2022-09-01T05:08:04;19.90;83.10
49238;DHT22;35069;47.906;1.892;2022-09-01T05:10:30;19.90;83.20
49238;DHT22;35069;47.906;1.892;2022-09-01T05:12:58;20.00;83.30
49238;DHT22;35069;47.906;1.892;2022-09-01T05:15:25;20.00;83.40
49238;DHT22;35069;47.906;1.892;2022-09-01T05:17:51;19.90;83.30
49238;DHT22;35069;47.906;1.892;2022-09-01T05:20:17;20.00;83.30
49238;DHT22;35069;47.906;1.892;2022-09-01T05:22:45;20.10;83.20
49238;DHT22;35069;47.906;1.892;2022-09-01T05:25:10;20.00;83.30
49238;DHT22;35069;47.906;1.892;2022-09-01T05:27:39;20.10;83.40
49238;DHT22;35069;47.906;1.892;2022-09-01T05:30:06;20.00;83.50
49238;DHT22;35069;47.906;1.892;2022-09-01T05:32:34;20.00;83.70
49238;DHT22;35069;47.906;1.892;2022-09-01T05:35:02;20.00;84.10
49238;DHT22;35069;47.906;1.892;2022-09-01T05:37:31;20.10;84.20
49238;DHT22;35069;47.906;1.892;2022-09-01T05:39:56;20.20;83.90
49238;DHT22;35069;47.906;1.892;2022-09-01T05:42:22;20.10;84.00
49238;DHT22;35069;47.906;1.892;2022-09-01T05:44:48;20.20;84.30
49238;DHT22;35069;47.906;1.892;2022-09-01T05:47:14;20.10;84.20
49238;DHT22;35069;47.906;1.892;2022-09-01T05:49:40;20.10;84.60
49238;DHT22;35069;47.906;1.892;2022-09-01T05:52:06;20.00;84.70
49238;DHT22;35069;47.906;1.892;2022-09-01T05:54:34;20.00;85.00
49238;DHT22;35069;47.906;1.892;2022-09-01T05:57:00;20.00;85.20
49238;DHT22;35069;47.906;1.892;2022-09-01T05:59:27;19.90;85.30
49238;DHT22;35069;47.906;1.892;2022-09-01T06:01:55;19.90;85.70
49238;DHT22;35069;47.906;1.892;2022-09-01T06:04:23;20.00;85.90
49238;DHT22;35069;47.906;1.892;2022-09-01T06:06:52;20.10;86.00
49238;DHT22;35069;47.906;1.892;2022-09-01T06:09:21;20.30;86.20
49238;DHT22;35069;47.906;1.892;2022-09-01T06:11:48;20.40;85.60
49238;DHT22;35069;47.906;1.892;2022-09-01T06:14:14;20.60;85.30
49238;DHT22;35069;47.906;1.892;2022-09-01T06:16:41;20.80;84.50
49238;DHT22;35069;47.906;1.892;2022-09-01T06:19:07;21.00;84.20
49238;DHT22;35069;47.906;1.892;2022-09-01T06:21:33;21.20;83.60
49238;DHT22;35069;47.906;1.892;2022-09-01T06:23:59;21.30;83.00
49238;DHT22;35069;47.906;1.892;2022-09-01T06:26:28;21.50;82.80
49238;DHT22;35069;47.906;1.892;2022-09-01T06:29:17;21.80;81.80
49238;DHT22;35069;47.906;1.892;2022-09-01T06:31:44;22.00;80.80
49238;DHT22;35069;47.906;1.892;2022-09-01T06:34:16;22.30;80.00
49238;DHT22;35069;47.906;1.892;2022-09-01T06:36:43;22.40;79.30
49238;DHT22;35069;47.906;1.892;2022-09-01T06:39:10;22.40;78.50
49238;DHT22;35069;47.906;1.892;2022-09-01T06:41:45;22.30;78.00
49238;DHT22;35069;47.906;1.892;2022-09-01T06:44:12;21.90;78.30
49238;DHT22;35069;47.906;1.892;2022-09-01T06:46:38;21.60;79.40
49238;DHT22;35069;47.906;1.892;2022-09-01T06:49:04;21.50;79.90
49238;DHT22;35069;47.906;1.892;2022-09-01T06:51:30;21.50;80.90
49238;DHT22;35069;47.906;1.892;2022-09-01T06:53:56;21.60;81.50
49238;DHT22;35069;47.906;1.892;2022-09-01T06:56:24;21.90;81.60
49238;DHT22;35069;47.906;1.892;2022-09-01T06:58:53;22.40;81.10
49238;DHT22;35069;47.906;1.892;2022-09-01T07:01:19;22.60;80.20
49238;DHT22;35069;47.906;1.892;2022-09-01T07:03:50;22.80;79.80
49238;DHT22;35069;47.906;1.892;2022-09-01T07:06:17;23.20;79.30
49238;DHT22;35069;47.906;1.892;2022-09-01T07:08:43;23.60;78.40
49238;DHT22;35069;47.906;1.892;2022-09-01T07:11:22;23.80;77.10
49238;DHT22;35069;47.906;1.892;2022-09-01T07:13:51;24.20;76.40
49238;DHT22;35069;47.906;1.892;2022-09-01T07:16:21;24.30;75.40
49238;DHT22;35069;47.906;1.892;2022-09-01T07:18:49;24.10;73.80
49238;DHT22;35069;47.906;1.892;2022-09-01T07:21:16;23.80;73.80
49238;DHT22;35069;47.906;1.892;2022-09-01T07:23:42;24.10;75.10
49238;DHT22;35069;47.906;1.892;2022-09-01T07:26:08;24.20;74.60
49238;DHT22;35069;47.906;1.892;2022-09-01T07:28:34;24.50;74.00
49238;DHT22;35069;47.906;1.892;2022-09-01T07:31:00;24.80;73.60
49238;DHT22;35069;47.906;1.892;2022-09-01T07:33:28;25.30;72.90
49238;DHT22;35069;47.906;1.892;2022-09-01T07:35:56;25.50;71.50
49238;DHT22;35069;47.906;1.892;2022-09-01T07:38:23;25.90;70.70
49238;DHT22;35069;47.906;1.892;2022-09-01T07:40:49;26.40;69.80
49238;DHT22;35069;47.906;1.892;2022-09-01T07:43:22;26.60;68.20
49238;DHT22;35069;47.906;1.892;2022-09-01T07:45:50;26.30;68.00
49238;DHT22;35069;47.906;1.892;2022-09-01T07:48:17;26.70;67.50
49238;DHT22;35069;47.906;1.892;2022-09-01T07:50:47;27.00;67.10
49238;DHT22;35069;47.906;1.892;2022-09-01T07:53:15;27.40;66.20
49238;DHT22;35069;47.906;1.892;2022-09-01T07:55:44;27.50;65.70
49238;DHT22;35069;47.906;1.892;2022-09-01T07:58:11;27.80;65.30
49238;DHT22;35069;47.906;1.892;2022-09-01T08:00:39;28.60;64.70
49238;DHT22;35069;47.906;1.892;2022-09-01T08:03:04;29.40;63.30
49238;DHT22;35069;47.906;1.892;2022-09-01T08:05:30;30.30;61.70
49238;DHT22;35069;47.906;1.892;2022-09-01T08:07:57;31.30;60.20
49238;DHT22;35069;47.906;1.892;2022-09-01T08:10:22;32.40;57.70
49238;DHT22;35069;47.906;1.892;2022-09-01T08:12:49;32.40;55.30
49238;DHT22;35069;47.906;1.892;2022-09-01T08:15:15;32.70;54.10
49238;DHT22;35069;47.906;1.892;2022-09-01T08:17:41;32.40;53.60
49238;DHT22;35069;47.906;1.892;2022-09-01T08:20:08;32.30;54.00
49238;DHT22;35069;47.906;1.892;2022-09-01T08:22:35;33.20;53.80
49238;DHT22;35069;47.906;1.892;2022-09-01T08:25:06;32.80;51.80
49238;DHT22;35069;47.906;1.892;2022-09-01T08:27:34;31.90;52.20
49238;DHT22;35069;47.906;1.892;2022-09-01T08:30:09;31.70;54.00
49238;DHT22;35069;47.906;1.892;2022-09-01T08:32:35;32.20;54.40
49238;DHT22;35069;47.906;1.892;2022-09-01T08:35:02;32.30;54.70
49238;DHT22;35069;47.906;1.892;2022-09-01T08:37:29;32.10;54.90
49238;DHT22;35069;47.906;1.892;2022-09-01T08:39:56;32.00;55.60
49238;DHT22;35069;47.906;1.892;2022-09-01T08:45:21;31.80;55.00
49238;DHT22;35069;47.906;1.892;2022-09-01T08:47:52;31.80;56.10
49238;DHT22;35069;47.906;1.892;2022-09-01T08:50:19;31.90;56.10
49238;DHT22;35069;47.906;1.892;2022-09-01T08:52:51;32.00;54.40
49238;DHT22;35069;47.906;1.892;2022-09-01T08:55:30;31.40;52.10
49238;DHT22;35069;47.906;1.892;2022-09-01T08:57:59;31.00;52.40
49238;DHT22;35069;47.906;1.892;2022-09-01T09:00:37;30.90;52.50
49238;DHT22;35069;47.906;1.892;2022-09-01T09:05:39;30.60;53.20
49238;DHT22;35069;47.906;1.892;2022-09-01T09:11:04;30.60;52.80
49238;DHT22;35069;47.906;1.892;2022-09-01T09:16:24;30.70;52.70
49238;DHT22;35069;47.906;1.892;2022-09-01T09:18:54;30.70;52.00
49238;DHT22;35069;47.906;1.892;2022-09-01T09:21:26;30.90;52.00
49238;DHT22;35069;47.906;1.892;2022-09-01T09:24:05;31.20;51.50
49238;DHT22;35069;47.906;1.892;2022-09-01T09:26:31;31.70;51.20
49238;DHT22;35069;47.906;1.892;2022-09-01T09:28:56;32.10;49.90
49238;DHT22;35069;47.906;1.892;2022-09-01T09:31:32;32.30;49.50
49238;DHT22;35069;47.906;1.892;2022-09-01T09:33:59;32.40;49.50
49238;DHT22;35069;47.906;1.892;2022-09-01T09:36:33;32.20;49.30
49238;DHT22;35069;47.906;1.892;2022-09-01T09:39:03;31.70;49.60
49238;DHT22;35069;47.906;1.892;2022-09-01T09:41:29;31.90;50.30
49238;DHT22;35069;47.906;1.892;2022-09-01T09:44:18;32.30;50.10
49238;DHT22;35069;47.906;1.892;2022-09-01T09:46:46;32.70;48.70
49238;DHT22;35069;47.906;1.892;2022-09-01T09:49:22;33.00;49.10
49238;DHT22;35069;47.906;1.892;2022-09-01T09:51:52;33.30;47.10
49238;DHT22;35069;47.906;1.892;2022-09-01T09:54:27;33.40;46.60
49238;DHT22;35069;47.906;1.892;2022-09-01T09:59:47;34.50;44.00
49238;DHT22;35069;47.906;1.892;2022-09-01T10:02:37;35.40;43.90
49238;DHT22;35069;47.906;1.892;2022-09-01T10:07:58;38.20;40.00
49238;DHT22;35069;47.906;1.892;2022-09-01T10:10:29;39.20;39.60
49238;DHT22;35069;47.906;1.892;2022-09-01T10:12:57;39.60;38.40
49238;DHT22;35069;47.906;1.892;2022-09-01T10:15:25;40.10;37.80
49238;DHT22;35069;47.906;1.892;2022-09-01T10:17:54;40.10;37.30
49238;DHT22;35069;47.906;1.892;2022-09-01T10:20:25;39.40;36.90
49238;DHT22;35069;47.906;1.892;2022-09-01T10:22:51;38.90;37.30
49238;DHT22;35069;47.906;1.892;2022-09-01T10:25:23;38.60;37.80
49238;DHT22;35069;47.906;1.892;2022-09-01T10:28:14;38.30;37.60
49238;DHT22;35069;47.906;1.892;2022-09-01T10:30:42;37.90;35.90
49238;DHT22;35069;47.906;1.892;2022-09-01T10:33:09;37.70;37.60
49238;DHT22;35069;47.906;1.892;2022-09-01T10:35:43;37.80;37.30
49238;DHT22;35069;47.906;1.892;2022-09-01T10:38:15;38.20;36.70
49238;DHT22;35069;47.906;1.892;2022-09-01T10:40:47;38.60;36.00
49238;DHT22;35069;47.906;1.892;2022-09-01T10:43:43;38.70;35.20
49238;DHT22;35069;47.906;1.892;2022-09-01T10:48:35;41.10;34.70
49238;DHT22;35069;47.906;1.892;2022-09-01T10:53:42;42.00;33.10
49238;DHT22;35069;47.906;1.892;2022-09-01T10:56:25;42.30;33.40
49238;DHT22;35069;47.906;1.892;2022-09-01T11:04:10;45.30;29.00
49238;DHT22;35069;47.906;1.892;2022-09-01T11:09:34;46.70;29.90
49238;DHT22;35069;47.906;1.892;2022-09-01T11:15:31;49.20;28.50
49238;DHT22;35069;47.906;1.892;2022-09-01T11:20:30;51.30;27.90
49238;DHT22;35069;47.906;1.892;2022-09-01T11:23:03;52.10;27.30
49238;DHT22;35069;47.906;1.892;2022-09-01T11:25:43;52.40;27.00
49238;DHT22;35069;47.906;1.892;2022-09-01T11:31:13;53.70;25.50
49238;DHT22;35069;47.906;1.892;2022-09-01T11:33:56;54.20;25.60
49238;DHT22;35069;47.906;1.892;2022-09-01T11:42:20;54.30;25.50
49238;DHT22;35069;47.906;1.892;2022-09-01T11:47:41;51.30;24.70
49238;DHT22;35069;47.906;1.892;2022-09-01T11:50:19;48.20;24.70
49238;DHT22;35069;47.906;1.892;2022-09-01T11:53:06;44.60;25.30
49238;DHT22;35069;47.906;1.892;2022-09-01T11:55:36;41.20;26.80
49238;DHT22;35069;47.906;1.892;2022-09-01T11:58:03;38.30;28.20
49238;DHT22;35069;47.906;1.892;2022-09-01T12:00:35;36.40;29.30
49238;DHT22;35069;47.906;1.892;2022-09-01T12:03:36;35.30;30.40
49238;DHT22;35069;47.906;1.892;2022-09-01T12:05:58;34.60;31.10
49238;DHT22;35069;47.906;1.892;2022-09-01T12:08:28;34.00;32.00
49238;DHT22;35069;47.906;1.892;2022-09-01T12:11:05;33.20;33.50
49238;DHT22;35069;47.906;1.892;2022-09-01T12:13:31;32.60;34.20
49238;DHT22;35069;47.906;1.892;2022-09-01T12:16:01;32.00;34.40
49238;DHT22;35069;47.906;1.892;2022-09-01T12:18:30;31.90;35.10
49238;DHT22;35069;47.906;1.892;2022-09-01T12:21:00;31.80;35.20
49238;DHT22;35069;47.906;1.892;2022-09-01T12:26:07;31.20;35.40
49238;DHT22;35069;47.906;1.892;2022-09-01T12:28:34;31.20;36.60
49238;DHT22;35069;47.906;1.892;2022-09-01T12:31:05;31.20;36.10
49238;DHT22;35069;47.906;1.892;2022-09-01T12:33:32;31.10;35.90
49238;DHT22;35069;47.906;1.892;2022-09-01T12:36:26;30.80;35.80
49238;DHT22;35069;47.906;1.892;2022-09-01T12:38:54;30.70;36.80
49238;DHT22;35069;47.906;1.892;2022-09-01T12:41:32;30.70;36.60
49238;DHT22;35069;47.906;1.892;2022-09-01T12:46:54;30.60;36.00
49238;DHT22;35069;47.906;1.892;2022-09-01T12:49:35;30.40;36.30
49238;DHT22;35069;47.906;1.892;2022-09-01T12:52:13;30.40;36.80
49238;DHT22;35069;47.906;1.892;2022-09-01T12:54:51;30.20;36.70
49238;DHT22;35069;47.906;1.892;2022-09-01T12:58:19;30.10;36.90
49238;DHT22;35069;47.906;1.892;2022-09-01T13:01:01;30.10;36.50
49238;DHT22;35069;47.906;1.892;2022-09-01T13:03:28;30.00;36.90
49238;DHT22;35069;47.906;1.892;2022-09-01T13:05:56;30.00;37.10
49238;DHT22;35069;47.906;1.892;2022-09-01T13:08:27;30.00;37.10
49238;DHT22;35069;47.906;1.892;2022-09-01T13:10:57;30.00;36.90
49238;DHT22;35069;47.906;1.892;2022-09-01T13:13:24;30.00;36.80
49238;DHT22;35069;47.906;1.892;2022-09-01T13:15:53;29.80;36.80
49238;DHT22;35069;47.906;1.892;2022-09-01T13:18:20;29.90;36.80
49238;DHT22;35069;47.906;1.892;2022-09-01T13:20:47;29.90;36.70
49238;DHT22;35069;47.906;1.892;2022-09-01T13:23:13;29.90;36.70
49238;DHT22;35069;47.906;1.892;2022-09-01T13:25:40;29.90;36.50
49238;DHT22;35069;47.906;1.892;2022-09-01T13:28:09;29.80;36.10
49238;DHT22;35069;47.906;1.892;2022-09-01T13:30:36;29.70;35.70
49238;DHT22;35069;47.906;1.892;2022-09-01T13:33:05;29.60;35.70
49238;DHT22;35069;47.906;1.892;2022-09-01T13:35:31;29.60;35.80
49238;DHT22;35069;47.906;1.892;2022-09-01T13:37:57;29.60;35.90
49238;DHT22;35069;47.906;1.892;2022-09-01T13:40:23;29.60;35.80
49238;DHT22;35069;47.906;1.892;2022-09-01T13:42:51;29.70;36.10
49238;DHT22;35069;47.906;1.892;2022-09-01T13:45:19;29.70;36.30
49238;DHT22;35069;47.906;1.892;2022-09-01T13:47:47;29.70;36.80
49238;DHT22;35069;47.906;1.892;2022-09-01T13:50:15;29.60;37.10
49238;DHT22;35069;47.906;1.892;2022-09-01T13:52:48;29.50;37.30
49238;DHT22;35069;47.906;1.892;2022-09-01T13:55:17;29.50;37.40
49238;DHT22;35069;47.906;1.892;2022-09-01T13:57:43;29.60;37.60
49238;DHT22;35069;47.906;1.892;2022-09-01T14:00:11;29.60;37.70
49238;DHT22;35069;47.906;1.892;2022-09-01T14:02:43;29.70;37.80
49238;DHT22;35069;47.906;1.892;2022-09-01T14:05:19;29.70;37.90
49238;DHT22;35069;47.906;1.892;2022-09-01T14:07:46;29.70;38.00
49238;DHT22;35069;47.906;1.892;2022-09-01T14:10:13;29.70;38.00
49238;DHT22;35069;47.906;1.892;2022-09-01T14:12:40;29.50;38.00
49238;DHT22;35069;47.906;1.892;2022-09-01T14:15:07;29.40;38.20
49238;DHT22;35069;47.906;1.892;2022-09-01T14:17:34;29.30;38.40
49238;DHT22;35069;47.906;1.892;2022-09-01T14:20:01;29.30;39.10
49238;DHT22;35069;47.906;1.892;2022-09-01T14:22:27;29.40;38.40
49238;DHT22;35069;47.906;1.892;2022-09-01T14:24:53;29.50;38.50
49238;DHT22;35069;47.906;1.892;2022-09-01T14:27:19;29.50;38.50
49238;DHT22;35069;47.906;1.892;2022-09-01T14:29:48;29.50;38.60
49238;DHT22;35069;47.906;1.892;2022-09-01T14:32:15;29.50;38.70
49238;DHT22;35069;47.906;1.892;2022-09-01T14:34:42;29.50;38.60
49238;DHT22;35069;47.906;1.892;2022-09-01T14:37:08;29.40;38.50
49238;DHT22;35069;47.906;1.892;2022-09-01T14:39:33;29.30;38.60
49238;DHT22;35069;47.906;1.892;2022-09-01T14:41:59;29.20;38.70
49238;DHT22;35069;47.906;1.892;2022-09-01T14:44:24;29.10;38.80
49238;DHT22;35069;47.906;1.892;2022-09-01T14:46:50;29.10;39.00
49238;DHT22;35069;47.906;1.892;2022-09-01T14:49:17;29.10;39.10
49238;DHT22;35069;47.906;1.892;2022-09-01T14:51:45;29.10;39.00
49238;DHT22;35069;47.906;1.892;2022-09-01T14:54:11;29.10;39.50
49238;DHT22;35069;47.906;1.892;2022-09-01T14:56:36;29.10;39.70
49238;DHT22;35069;47.906;1.892;2022-09-01T14:59:02;29.20;39.50
49238;DHT22;35069;47.906;1.892;2022-09-01T15:01:28;29.10;39.20
49238;DHT22;35069;47.906;1.892;2022-09-01T15:03:54;29.20;39.40
49238;DHT22;35069;47.906;1.892;2022-09-01T15:06:22;29.30;39.30
49238;DHT22;35069;47.906;1.892;2022-09-01T15:08:48;29.40;39.40
49238;DHT22;35069;47.906;1.892;2022-09-01T15:11:17;29.50;39.30
49238;DHT22;35069;47.906;1.892;2022-09-01T15:13:43;29.60;39.40
49238;DHT22;35069;47.906;1.892;2022-09-01T15:16:15;29.50;39.10
49238;DHT22;35069;47.906;1.892;2022-09-01T15:18:41;29.50;38.90
49238;DHT22;35069;47.906;1.892;2022-09-01T15:21:07;29.50;39.10
49238;DHT22;35069;47.906;1.892;2022-09-01T15:23:33;29.40;39.00
49238;DHT22;35069;47.906;1.892;2022-09-01T15:25:59;29.30;39.00
49238;DHT22;35069;47.906;1.892;2022-09-01T15:28:25;29.20;39.00
49238;DHT22;35069;47.906;1.892;2022-09-01T15:30:52;29.10;39.10
49238;DHT22;35069;47.906;1.892;2022-09-01T15:33:19;28.90;39.30
49238;DHT22;35069;47.906;1.892;2022-09-01T15:35:45;28.90;39.40
49238;DHT22;35069;47.906;1.892;2022-09-01T15:38:15;28.90;39.40
49238;DHT22;35069;47.906;1.892;2022-09-01T15:40:41;28.90;39.30
49238;DHT22;35069;47.906;1.892;2022-09-01T15:43:07;29.00;39.40
49238;DHT22;35069;47.906;1.892;2022-09-01T15:45:33;29.00;39.30
49238;DHT22;35069;47.906;1.892;2022-09-01T15:48:00;29.00;39.20
49238;DHT22;35069;47.906;1.892;2022-09-01T15:50:26;29.00;39.10
49238;DHT22;35069;47.906;1.892;2022-09-01T15:52:57;28.90;39.10
49238;DHT22;35069;47.906;1.892;2022-09-01T15:55:27;28.90;39.00
49238;DHT22;35069;47.906;1.892;2022-09-01T15:57:53;28.90;39.10
49238;DHT22;35069;47.906;1.892;2022-09-01T16:00:21;28.90;39.10
49238;DHT22;35069;47.906;1.892;2022-09-01T16:02:46;29.00;39.20
49238;DHT22;35069;47.906;1.892;2022-09-01T16:05:13;29.10;39.30
49238;DHT22;35069;47.906;1.892;2022-09-01T16:07:40;29.10;39.30
49238;DHT22;35069;47.906;1.892;2022-09-01T16:10:06;29.20;39.30
49238;DHT22;35069;47.906;1.892;2022-09-01T16:12:36;29.20;39.20
49238;DHT22;35069;47.906;1.892;2022-09-01T16:15:01;29.30;39.20
49238;DHT22;35069;47.906;1.892;2022-09-01T16:17:54;29.30;39.20
49238;DHT22;35069;47.906;1.892;2022-09-01T16:20:29;29.30;38.90
49238;DHT22;35069;47.906;1.892;2022-09-01T16:23:12;29.30;39.00
49238;DHT22;35069;47.906;1.892;2022-09-01T16:25:39;29.30;39.00
49238;DHT22;35069;47.906;1.892;2022-09-01T16:28:22;29.20;39.00
49238;DHT22;35069;47.906;1.892;2022-09-01T16:30:51;29.20;39.00
49238;DHT22;35069;47.906;1.892;2022-09-01T16:33:18;29.20;39.00
49238;DHT22;35069;47.906;1.892;2022-09-01T16:38:38;29.10;39.00
49238;DHT22;35069;47.906;1.892;2022-09-01T16:46:11;29.10;39.10
49238;DHT22;35069;47.906;1.892;2022-09-01T17:00:14;29.00;39.20